Lawton, MI (49065)

7:11 AM EST on December 25, 2014 (GMT -0500)
Allers Precision Lawn Care | Change Station
CLOSE
Current Station
Personal Weather Station
Location: Mattawan, MI
Elevation: 837 ft
Nearby Weather Stations

Elev 837 ft 42.21 °N, 85.79 °W | Updated 5 minutes ago

Overcast
Overcast
36.0 °F
Feels Like 32 °F
N
5.0
Wind Variable Wind from SSE
Gusts 13.0 mph

Today
High -- | Low -- °F
--% Chance of Precip.
Yesterday
High -- | Low -- °F
Precip. -- in
8:10 AM 5:16 PM
Waxing Crescent, 16% visible
Pressure 29.82 in
Visibility 10.0 miles
Clouds Mostly Cloudy 2200 ft
Overcast 2700 ft
Windchill 32 °F
Dew Point 33 °F
Humidity 89%
Rainfall 0.02 in
Snow Depth Not available.
UV 0 out of 12
Pollen .10 out of 12
Air Quality Not available.
Flu Activity Not available.
METAR KAZO 251153Z 27010KT 10SM BKN022 OVC027 03/00 A2979 RMK AO2 RAB02E11 SLP097 P0000 60002 70058 T00280000 10028 20022 53043

More Conditions Fewer Conditions

Pressure 29.82 in
Visibility 10.0 miles
Clouds Mostly Cloudy 2200 ft
Overcast 2700 ft
Windchill 32 °F
Dew Point 33 °F
Humidity 89%
Rainfall 0.02 in
Snow Depth Not available.
UV 0 out of 12
Pollen .10 out of 12
Air Quality Not available.
Flu Activity Not available.
METAR KAZO 251153Z 27010KT 10SM BKN022 OVC027 03/00 A2979 RMK AO2 RAB02E11 SLP097 P0000 60002 70058 T00280000 10028 20022 53043

More Conditions Fewer Conditions

10-Day Weather Forecast

Almanac

Astronomy

Dec. 25, 2014 Rise Set
Actual Time
Civil Twilight
Nautical Twilight
Astronomical Twilight
Moon
Length of Visible Light
Length of Day
Tomorrow will be .
, % of the Moon is Illuminated

Today's Extremes

State Highs State Lows

Community

WunderPhotos

Upload Photos

1,780,264 photos uploaded!

WunderBlogs® & News

Nearby

Air Quality

  Air Quality AQ Index Pollutant
Not available.

Snow Depth

Station Depth Elevation

Earthquake Activity

City Distance Mag. Time & Date
Minimum magnitude displayed is 2.5.

Coastal Water Temperatures

Place Temperature

Nearby Weather Stations